Impacts TAF Board
For situational awareness. Not to be used for flight planning purposes.
IDs:

KAMA - Amarillo Intl Arpt, TX, US

Issued at 1127 UTC 30 Oct 2020
Updated at 1649 UTC 30 Oct 2020
Potential Impact None Slight Moderate High
Time1553Z 30/17Z 30/18Z 30/19Z 30/20Z 30/21Z 30/22Z 30/23Z 31/00Z 31/01Z 31/02Z 31/03Z 31/04Z 31/05Z>>
Type OBS PRVL PRVL PRVL PRVL PRVL PRVL PRVL PRVL PRVL PRVL PRVL PRVL PRVL
VIS 10 >6 >6 >6 >6 >6 >6 >6 >6 >6 >6 >6 >6 >6
CIG -- -- -- -- -- -- -- -- -- -- -- -- -- --
Cover CLR FEW FEW FEW FEW FEW FEW FEW FEW FEW FEW FEW FEW FEW
FltCat VFR VFR VFR VFR VFR VFR VFR VFR VFR VFR VFR VFR VFR VFR
WX -- -- -- -- -- -- -- -- -- -- -- -- -- --
WDir 210 190 190 190 190 190 190 190 190 190 190 190 190 190
WSpd 10 11 11 11 11 11 11 11 11 11 11 11 11 11
WGst -- -- -- -- -- -- -- -- -- -- -- -- -- --
Raw TAF
KAMA 301127Z 3012/3112 19011KT P6SM FEW250

Raw METAR
KAMA 301553Z 21010KT 10SM CLR 06/02 A3026 RMK AO2 SLP246 T00610022
KAMA 301453Z 22013KT 10SM CLR 04/01 A3025 RMK AO2 SLP248 T00390011 53009
KAMA 301353Z 21010KT 10SM CLR 02/00 A3024 RMK AO2 SLP246 T00170000

METAR Board
Radar Display
Forecast Discussion
For situational awareness. Not to be used for flight planning purposes.